createdAt,value
2022-09-05T00:01:41.234Z,78.70
2022-09-05T00:04:24.425Z,78.60
2022-09-05T00:07:31.163Z,79.00
2022-09-05T00:10:14.935Z,78.60
2022-09-05T00:12:42.623Z,78.90
2022-09-05T00:15:19.968Z,79.00
2022-09-05T00:19:35.464Z,78.90
2022-09-05T00:24:32.280Z,78.50
2022-09-05T00:24:36.939Z,78.20
2022-09-05T00:26:28.597Z,78.30
2022-09-05T00:29:02.972Z,78.80
2022-09-05T00:31:55.520Z,79.30
2022-09-05T00:34:26.638Z,78.80
2022-09-05T00:37:08.869Z,78.80
2022-09-05T00:39:40.182Z,78.80
2022-09-05T00:42:17.338Z,79.20
2022-09-05T00:44:50.334Z,79.20
2022-09-05T00:47:30.201Z,78.70
2022-09-05T00:50:00.135Z,78.70
2022-09-05T00:52:37.104Z,78.60
2022-09-05T00:55:18.469Z,78.20
2022-09-05T00:57:45.011Z,77.60
2022-09-05T01:00:24.649Z,77.40
2022-09-05T01:03:10.542Z,76.70
2022-09-05T01:05:54.564Z,76.00
2022-09-05T01:08:30.319Z,75.10
2022-09-05T01:11:04.859Z,75.40
2022-09-05T01:13:50.089Z,75.80
2022-09-05T01:16:19.697Z,75.80
2022-09-05T01:19:22.082Z,76.20
2022-09-05T01:21:52.956Z,76.70
2022-09-05T01:24:27.804Z,76.60
2022-09-05T01:27:13.478Z,76.30
2022-09-05T01:30:00.321Z,76.60
2022-09-05T01:32:39.037Z,76.50
2022-09-05T01:35:25.712Z,76.20
2022-09-05T01:38:12.123Z,76.10
2022-09-05T01:40:41.575Z,76.70
2022-09-05T01:43:10.573Z,78.50
2022-09-05T01:45:50.913Z,79.30
2022-09-05T01:48:23.690Z,79.20
2022-09-05T01:51:29.137Z,79.20
2022-09-05T01:54:26.702Z,79.50
2022-09-05T01:57:07.508Z,79.40
2022-09-05T01:59:39.776Z,80.20
2022-09-05T02:02:31.671Z,80.40
2022-09-05T02:05:01.078Z,80.10
2022-09-05T02:07:43.590Z,79.30
2022-09-05T02:10:29.089Z,78.50
2022-09-05T02:13:11.399Z,77.90
2022-09-05T02:15:59.103Z,78.00
2022-09-05T02:18:29.062Z,78.40
2022-09-05T02:21:02.552Z,79.30
2022-09-05T02:23:42.527Z,79.60
2022-09-05T02:26:23.255Z,79.80
2022-09-05T02:28:55.661Z,80.00
2022-09-05T02:31:25.102Z,80.60
2022-09-05T02:34:00.131Z,81.90
2022-09-05T02:36:47.856Z,81.90
2022-09-05T02:45:00.139Z,81.90
2022-09-05T02:45:19.649Z,82.00
2022-09-05T02:45:26.841Z,81.90
2022-09-05T02:48:16.263Z,81.30
2022-09-05T02:57:23.037Z,80.40
2022-09-05T02:57:33.269Z,80.00
2022-09-05T02:57:40.447Z,79.30
2022-09-05T02:59:35.843Z,80.00
2022-09-05T03:02:08.434Z,80.80
2022-09-05T03:04:52.520Z,80.70
2022-09-05T03:07:42.873Z,80.10
2022-09-05T03:10:15.420Z,79.10
2022-09-05T03:12:54.301Z,79.60
2022-09-05T03:15:39.501Z,79.60
2022-09-05T03:18:20.792Z,79.10
2022-09-05T03:21:08.927Z,78.50
2022-09-05T03:23:45.389Z,78.50
2022-09-05T03:26:36.777Z,79.10
2022-09-05T03:29:22.011Z,81.10
2022-09-05T03:31:54.477Z,81.60
2022-09-05T03:34:39.950Z,81.60
2022-09-05T03:37:08.298Z,81.60
2022-09-05T03:39:34.908Z,81.50
2022-09-05T03:42:01.655Z,81.50
2022-09-05T03:44:47.218Z,81.60
2022-09-05T03:47:36.294Z,81.50
2022-09-05T03:53:20.363Z,80.90
2022-09-05T03:57:10.415Z,81.10
2022-09-05T03:57:24.169Z,81.50
2022-09-05T03:59:30.056Z,82.50
2022-09-05T04:04:31.770Z,82.60
2022-09-05T04:08:13.521Z,81.50
2022-09-05T04:08:31.175Z,81.40
2022-09-05T04:10:41.818Z,81.40
2022-09-05T04:13:14.627Z,81.40
2022-09-05T04:15:46.259Z,81.40
2022-09-05T04:18:18.688Z,81.30
2022-09-05T04:21:01.737Z,81.70
2022-09-05T04:23:37.210Z,81.40
2022-09-05T04:26:13.927Z,81.40
2022-09-05T04:28:44.120Z,81.90
2022-09-05T04:31:26.345Z,82.30
2022-09-05T04:34:02.161Z,82.00
2022-09-05T04:36:36.243Z,81.50
2022-09-05T04:39:08.849Z,81.70
2022-09-05T04:41:40.308Z,81.30
2022-09-05T04:44:17.483Z,81.40
2022-09-05T04:46:49.158Z,81.30
2022-09-05T04:49:18.136Z,81.30
2022-09-05T04:52:06.267Z,81.30
2022-09-05T04:54:35.941Z,81.20
2022-09-05T04:57:14.140Z,80.50
2022-09-05T05:05:58.189Z,80.00
2022-09-05T05:06:13.730Z,79.80
2022-09-05T05:06:18.348Z,79.40
2022-09-05T05:08:41.060Z,79.10
2022-09-05T05:16:18.637Z,78.90
2022-09-05T05:18:14.078Z,77.90
2022-09-05T05:18:15.786Z,78.60
2022-09-05T05:20:42.608Z,77.60
2022-09-05T05:23:10.456Z,78.40
2022-09-05T05:25:43.083Z,79.10
2022-09-05T05:28:25.022Z,79.30
2022-09-05T05:31:08.283Z,78.20
2022-09-05T05:33:35.964Z,75.50
2022-09-05T05:36:04.405Z,72.80
2022-09-05T05:38:42.182Z,69.40
2022-09-05T05:41:31.743Z,66.00
2022-09-05T05:43:59.096Z,63.50
2022-09-05T05:46:30.513Z,58.60
2022-09-05T05:49:04.254Z,56.80
2022-09-05T05:52:00.970Z,52.10
2022-09-05T05:54:33.135Z,50.50
2022-09-05T05:57:17.986Z,46.60
2022-09-05T05:59:56.322Z,44.90
2022-09-05T06:02:34.213Z,41.90
2022-09-05T06:05:09.708Z,39.60
2022-09-05T06:09:28.330Z,36.10
2022-09-05T06:14:49.766Z,36.20
2022-09-05T06:15:02.948Z,33.50
2022-09-05T06:16:57.376Z,30.00
2022-09-05T06:20:20.882Z,27.50
2022-09-05T06:22:33.822Z,26.20
2022-09-05T06:25:18.772Z,24.20
2022-09-05T06:28:17.445Z,20.20
2022-09-05T06:30:37.646Z,17.20
2022-09-05T06:33:09.398Z,14.90
2022-09-05T06:36:11.731Z,10.80
2022-09-05T06:38:53.803Z,10.20
2022-09-05T06:41:32.362Z,9.30
2022-09-05T06:44:12.682Z,8.50
2022-09-05T06:46:55.465Z,4.50
2022-09-05T06:49:38.138Z,4.70
2022-09-05T06:52:29.423Z,4.30
2022-09-05T06:55:15.340Z,1.00
2022-09-05T06:58:00.792Z,1.00
2022-09-05T07:00:36.817Z,1.00
2022-09-05T07:03:09.695Z,1.00
2022-09-05T07:05:45.086Z,1.00
2022-09-05T07:08:35.011Z,1.00
2022-09-05T07:11:16.608Z,1.00
2022-09-05T07:13:49.793Z,1.00
2022-09-05T07:16:29.790Z,1.00
2022-09-05T07:19:12.255Z,1.00
2022-09-05T07:21:41.809Z,1.00
2022-09-05T07:24:29.728Z,2.60
2022-09-05T07:27:10.930Z,2.50
2022-09-05T07:29:53.221Z,1.20
2022-09-05T07:32:29.837Z,1.10
2022-09-05T07:34:58.265Z,1.10
2022-09-05T07:37:51.202Z,5.40
2022-09-05T07:40:26.340Z,2.40
2022-09-05T07:43:08.798Z,3.10
2022-09-05T07:45:37.778Z,1.00
2022-09-05T07:48:11.884Z,2.60
2022-09-05T07:52:23.508Z,3.60
2022-09-05T07:56:52.288Z,1.00
2022-09-05T07:56:59.132Z,1.00
2022-09-05T07:59:29.078Z,1.00
2022-09-05T08:01:56.330Z,1.00
2022-09-05T08:04:30.156Z,1.00
2022-09-05T08:07:46.139Z,1.00
2022-09-05T08:10:08.723Z,1.00
2022-09-05T08:13:22.952Z,1.00
2022-09-05T08:15:26.078Z,1.00
2022-09-05T08:18:24.058Z,1.00
2022-09-05T08:20:53.101Z,1.00
2022-09-05T08:23:22.722Z,2.20
2022-09-05T08:25:59.017Z,3.90
2022-09-05T08:28:38.909Z,1.00
2022-09-05T08:31:14.833Z,1.00
2022-09-05T08:33:43.397Z,1.00
2022-09-05T08:36:30.326Z,1.00
2022-09-05T08:38:59.393Z,1.00
2022-09-05T08:41:49.452Z,1.00
2022-09-05T08:46:35.794Z,1.00
2022-09-05T08:47:18.388Z,1.00
2022-09-05T08:49:58.843Z,1.00
2022-09-05T08:52:52.143Z,1.00
2022-09-05T08:55:36.648Z,1.00
2022-09-05T08:58:24.997Z,1.00
2022-09-05T09:01:00.187Z,1.00
2022-09-05T09:03:41.684Z,1.00
2022-09-05T09:06:27.899Z,1.00
2022-09-05T09:09:09.851Z,1.00
2022-09-05T09:11:48.753Z,1.00
2022-09-05T09:14:35.341Z,1.00
2022-09-05T09:17:20.665Z,1.00
2022-09-05T09:19:54.816Z,1.00
2022-09-05T09:22:26.969Z,1.00
2022-09-05T09:25:15.886Z,1.00
2022-09-05T09:28:42.059Z,1.00
2022-09-05T09:30:39.899Z,1.00
2022-09-05T09:33:07.545Z,1.00
2022-09-05T09:35:44.374Z,1.00
2022-09-05T09:38:20.057Z,1.00
2022-09-05T09:41:00.787Z,1.00
2022-09-05T09:43:31.778Z,1.00
2022-09-05T09:46:18.131Z,1.00
2022-09-05T09:48:52.861Z,1.00
2022-09-05T09:51:41.413Z,1.00
2022-09-05T09:54:11.950Z,1.00
2022-09-05T09:56:41.880Z,1.00
2022-09-05T09:59:23.506Z,1.00
2022-09-05T10:04:27.538Z,1.00
2022-09-05T10:10:36.257Z,1.00
2022-09-05T10:10:56.273Z,1.00
2022-09-05T10:14:29.084Z,1.00
2022-09-05T10:17:22.786Z,1.00
2022-09-05T10:20:10.431Z,1.00
2022-09-05T10:22:56.306Z,1.00
2022-09-05T10:25:41.422Z,1.00
2022-09-05T10:28:09.028Z,1.00
2022-09-05T10:33:05.313Z,1.00
2022-09-05T10:35:18.208Z,1.00
2022-09-05T10:36:40.337Z,1.00
2022-09-05T10:39:16.325Z,1.00
2022-09-05T10:41:53.570Z,1.00
2022-09-05T10:44:29.428Z,1.00
2022-09-05T10:47:09.891Z,1.00
2022-09-05T10:49:42.776Z,1.00
2022-09-05T10:52:18.108Z,1.00
2022-09-05T10:55:15.124Z,1.00
2022-09-05T10:57:57.464Z,1.00
2022-09-05T11:02:20.101Z,1.00
2022-09-05T11:03:23.007Z,1.00
2022-09-05T11:05:55.799Z,1.00
2022-09-05T11:08:44.954Z,1.00
2022-09-05T11:11:28.442Z,1.00
2022-09-05T11:14:03.847Z,1.00
2022-09-05T11:16:38.942Z,1.00
2022-09-05T11:19:05.573Z,1.00
2022-09-05T11:22:12.150Z,1.00
2022-09-05T11:24:50.927Z,1.00
2022-09-05T11:27:35.186Z,1.00
2022-09-05T11:30:05.460Z,1.00
2022-09-05T11:39:46.310Z,1.00
2022-09-05T11:40:00.057Z,1.00
2022-09-05T11:40:08.725Z,1.00
2022-09-05T11:41:28.898Z,1.00
2022-09-05T11:44:25.030Z,1.00
2022-09-05T11:46:53.002Z,1.00
2022-09-05T11:49:42.336Z,1.00
2022-09-05T11:52:27.422Z,1.00
2022-09-05T11:54:57.269Z,1.00
2022-09-05T11:57:32.127Z,1.00
2022-09-05T12:00:28.201Z,1.00
2022-09-05T12:02:53.968Z,1.00
2022-09-05T12:05:48.335Z,1.00
2022-09-05T12:08:21.795Z,1.00
2022-09-05T12:11:22.277Z,1.00
2022-09-05T12:13:55.421Z,1.00
2022-09-05T12:16:28.483Z,1.00
2022-09-05T12:19:19.181Z,1.00
2022-09-05T12:22:02.503Z,1.00
2022-09-05T12:25:26.346Z,1.00
2022-09-05T12:27:46.635Z,1.00
2022-09-05T12:30:28.805Z,1.00
2022-09-05T12:36:05.426Z,1.00
2022-09-05T12:40:40.210Z,1.00
2022-09-05T12:40:55.678Z,1.00
2022-09-05T12:42:20.005Z,1.00
2022-09-05T12:44:51.099Z,1.00
2022-09-05T12:47:21.183Z,1.00
2022-09-05T12:50:02.861Z,1.00
2022-09-05T12:52:32.358Z,1.00
2022-09-05T12:55:04.432Z,1.00
2022-09-05T13:01:39.309Z,1.00
2022-09-05T13:06:26.761Z,1.00
2022-09-05T13:09:00.303Z,1.00
2022-09-05T13:14:53.767Z,1.00
2022-09-05T13:15:03.213Z,1.00
2022-09-05T13:17:31.043Z,1.00
2022-09-05T13:20:00.470Z,1.00
2022-09-05T13:22:28.147Z,1.00
2022-09-05T13:25:06.414Z,1.00
2022-09-05T13:27:34.484Z,1.00
2022-09-05T13:32:50.033Z,1.00
2022-09-05T13:37:58.216Z,1.00
2022-09-05T13:38:08.370Z,1.00
2022-09-05T13:39:06.507Z,1.00
2022-09-05T13:41:36.207Z,1.00
2022-09-05T13:44:26.228Z,1.00
2022-09-05T13:47:28.424Z,1.00
2022-09-05T13:50:08.665Z,1.00
2022-09-05T13:52:51.586Z,1.00
2022-09-05T13:55:23.046Z,1.00
2022-09-05T13:57:53.020Z,1.00
2022-09-05T14:00:28.219Z,1.00
2022-09-05T14:03:36.065Z,1.00
2022-09-05T14:06:01.174Z,1.00
2022-09-05T14:08:36.881Z,1.00
2022-09-05T14:11:12.683Z,1.00
2022-09-05T14:13:58.700Z,1.00
2022-09-05T14:16:26.816Z,1.00
2022-09-05T14:19:12.777Z,1.00
2022-09-05T14:21:40.816Z,1.00
2022-09-05T14:24:10.177Z,1.00
2022-09-05T14:26:44.896Z,1.00
2022-09-05T14:29:27.730Z,1.00
2022-09-05T14:37:37.044Z,1.00
2022-09-05T14:37:50.671Z,1.00
2022-09-05T14:38:13.351Z,1.00
2022-09-05T14:41:00.258Z,1.00
2022-09-05T14:43:30.783Z,1.00
2022-09-05T14:46:10.339Z,1.00
2022-09-05T14:48:55.663Z,1.00
2022-09-05T14:51:34.374Z,1.00
2022-09-05T14:54:04.215Z,1.00
2022-09-05T15:01:34.462Z,1.00
2022-09-05T15:02:45.490Z,1.00
2022-09-05T15:02:58.670Z,1.00
2022-09-05T15:05:11.810Z,1.00
2022-09-05T15:07:39.969Z,1.00
2022-09-05T15:12:16.597Z,1.00
2022-09-05T15:13:02.361Z,1.00
2022-09-05T15:15:38.420Z,1.00
2022-09-05T15:18:10.121Z,1.00
2022-09-05T15:20:40.989Z,1.00
2022-09-05T15:23:17.017Z,1.00
2022-09-05T15:25:45.835Z,1.00
2022-09-05T15:28:30.494Z,1.00
2022-09-05T15:30:58.484Z,1.00
2022-09-05T15:33:28.292Z,1.00
2022-09-05T15:35:55.725Z,1.00
2022-09-05T15:38:54.386Z,1.00
2022-09-05T15:41:28.911Z,1.00
2022-09-05T15:44:09.925Z,1.00
2022-09-05T15:46:49.103Z,1.00
2022-09-05T15:49:34.328Z,1.00
2022-09-05T15:52:02.991Z,1.00
2022-09-05T15:54:39.195Z,1.00
2022-09-05T15:57:08.860Z,1.00
2022-09-05T15:59:47.083Z,1.00
2022-09-05T16:02:17.212Z,1.00
2022-09-05T16:08:08.218Z,1.00
2022-09-05T16:10:45.523Z,1.00
2022-09-05T16:10:58.998Z,1.00
2022-09-05T16:13:17.191Z,1.00
2022-09-05T16:20:43.357Z,1.00
2022-09-05T16:23:13.819Z,1.00
2022-09-05T16:23:25.480Z,1.00
2022-09-05T16:24:10.735Z,1.00
2022-09-05T16:26:42.066Z,1.00
2022-09-05T16:29:23.893Z,1.00
2022-09-05T16:32:02.150Z,1.00
2022-09-05T16:35:07.205Z,1.00
2022-09-05T16:37:41.475Z,1.00
2022-09-05T16:40:08.269Z,1.00
2022-09-05T16:42:47.001Z,1.00
2022-09-05T16:45:32.434Z,1.00
2022-09-05T16:48:14.378Z,1.00
2022-09-05T16:51:11.714Z,1.00
2022-09-05T16:53:59.001Z,1.00
2022-09-05T16:56:34.994Z,1.00
2022-09-05T16:59:03.329Z,1.00
2022-09-05T17:01:38.374Z,1.00
2022-09-05T17:04:23.548Z,1.00
2022-09-05T17:06:54.161Z,1.00
2022-09-05T17:09:23.366Z,1.00
2022-09-05T17:12:01.487Z,1.00
2022-09-05T17:14:36.035Z,1.00
2022-09-05T17:17:38.873Z,1.00
2022-09-05T17:20:08.051Z,1.00
2022-09-05T17:25:41.384Z,1.00
2022-09-05T17:29:23.804Z,1.00
2022-09-05T17:29:49.093Z,1.00
2022-09-05T17:31:53.659Z,1.00
2022-09-05T17:34:27.417Z,1.00
2022-09-05T17:37:11.126Z,1.00
2022-09-05T17:40:02.284Z,1.00
2022-09-05T17:42:38.221Z,1.00
2022-09-05T17:45:04.930Z,1.00
2022-09-05T17:47:44.418Z,1.00
2022-09-05T17:50:16.184Z,1.00
2022-09-05T17:53:26.941Z,1.00
2022-09-05T17:55:52.564Z,1.00
2022-09-05T17:58:26.875Z,1.00
2022-09-05T18:01:16.047Z,1.00
2022-09-05T18:03:44.900Z,1.00
2022-09-05T18:06:14.287Z,1.00
2022-09-05T18:08:47.935Z,1.00
2022-09-05T18:11:17.994Z,1.00
2022-09-05T18:13:54.110Z,1.00
2022-09-05T18:19:36.401Z,1.00
2022-09-05T18:22:08.665Z,1.00
2022-09-05T18:24:37.825Z,1.00
2022-09-05T18:30:10.856Z,1.00
2022-09-05T18:32:39.076Z,1.00
2022-09-05T18:35:11.283Z,1.00
2022-09-05T18:37:37.899Z,1.00
2022-09-05T18:40:06.296Z,1.00
2022-09-05T18:42:36.327Z,1.00
2022-09-05T18:45:15.113Z,1.00
2022-09-05T18:47:53.305Z,1.00
2022-09-05T18:50:28.162Z,1.00
2022-09-05T18:53:08.871Z,3.20
2022-09-05T18:56:09.988Z,3.80
2022-09-05T18:58:28.681Z,5.00
2022-09-05T19:00:55.819Z,5.90
2022-09-05T19:03:29.594Z,7.10
2022-09-05T19:06:37.111Z,8.50
2022-09-05T19:08:48.897Z,10.10
2022-09-05T19:11:27.856Z,11.10
2022-09-05T19:14:02.759Z,10.00
2022-09-05T19:16:47.733Z,9.70
2022-09-05T19:19:16.050Z,12.30
2022-09-05T19:21:56.196Z,14.30
2022-09-05T19:24:45.638Z,14.40
2022-09-05T19:27:34.200Z,14.30
2022-09-05T19:36:57.702Z,14.20
2022-09-05T19:36:59.990Z,14.20
2022-09-05T19:37:13.244Z,14.20
2022-09-05T19:38:21.734Z,14.00
2022-09-05T19:47:34.370Z,14.60
2022-09-05T19:47:43.031Z,16.90
2022-09-05T19:47:48.316Z,16.70
2022-09-05T19:49:09.858Z,18.70
2022-09-05T19:51:37.124Z,18.60
2022-09-05T19:54:05.854Z,19.30
2022-09-05T19:56:40.840Z,19.90
2022-09-05T19:59:16.608Z,21.50
2022-09-05T20:01:44.067Z,22.80
2022-09-05T20:04:16.294Z,23.10
2022-09-05T20:06:42.849Z,24.80
2022-09-05T20:09:20.392Z,24.80
2022-09-05T20:11:51.355Z,24.40
2022-09-05T20:14:31.340Z,24.80
2022-09-05T20:17:17.904Z,25.50
2022-09-05T20:19:45.036Z,27.40
2022-09-05T20:22:47.518Z,27.40
2022-09-05T20:25:34.590Z,27.40
2022-09-05T20:28:00.571Z,27.30
2022-09-05T20:30:40.153Z,27.80
2022-09-05T20:33:13.802Z,29.30
2022-09-05T20:38:23.904Z,30.10
2022-09-05T20:43:11.175Z,30.20
2022-09-05T20:43:32.631Z,29.00
2022-09-05T20:44:19.261Z,28.50
2022-09-05T20:50:44.378Z,24.60
2022-09-05T20:54:09.848Z,21.10
2022-09-05T20:54:28.125Z,18.20
2022-09-05T20:55:39.056Z,17.60
2022-09-05T20:58:09.537Z,17.70
2022-09-05T21:00:37.815Z,17.90
2022-09-05T21:03:08.389Z,20.90
2022-09-05T21:05:37.846Z,20.60
2022-09-05T21:08:19.559Z,21.50
2022-09-05T21:10:56.602Z,24.60
2022-09-05T21:13:25.140Z,26.90
2022-09-05T21:15:53.613Z,26.80
2022-09-05T21:18:22.401Z,27.20
2022-09-05T21:20:53.058Z,27.20
2022-09-05T21:23:21.039Z,26.60
2022-09-05T21:25:55.580Z,27.40
2022-09-05T21:28:23.632Z,26.60
2022-09-05T21:31:06.037Z,28.90
2022-09-05T21:33:45.581Z,29.10
2022-09-05T21:36:14.636Z,30.70
2022-09-05T21:38:42.591Z,31.40
2022-09-05T21:41:09.585Z,31.20
2022-09-05T21:47:38.805Z,31.40
2022-09-05T21:47:42.648Z,33.60
2022-09-05T21:49:19.229Z,35.40
2022-09-05T21:51:50.419Z,36.80
2022-09-05T21:58:22.153Z,36.70
2022-09-05T21:59:32.700Z,36.60
2022-09-05T21:59:58.678Z,37.50
2022-09-05T22:02:34.445Z,39.00
2022-09-05T22:05:03.278Z,39.20
2022-09-05T22:07:32.855Z,39.60
2022-09-05T22:10:00.192Z,41.80
2022-09-05T22:12:31.438Z,42.50
2022-09-05T22:15:26.271Z,42.40
2022-09-05T22:17:46.572Z,42.50
2022-09-05T22:20:15.708Z,43.10
2022-09-05T22:22:42.555Z,43.30
2022-09-05T22:25:14.325Z,43.50
2022-09-05T22:27:43.752Z,43.50
2022-09-05T22:30:11.910Z,44.60
2022-09-05T22:32:38.470Z,45.60
2022-09-05T22:35:27.624Z,46.00
2022-09-05T22:37:59.695Z,47.40
2022-09-05T22:40:27.651Z,47.30
2022-09-05T22:42:58.341Z,47.30
2022-09-05T22:45:25.115Z,47.30
2022-09-05T22:47:51.941Z,47.00
2022-09-05T22:50:18.555Z,47.20
2022-09-05T22:52:45.115Z,47.20
2022-09-05T22:55:11.673Z,47.10
2022-09-05T22:57:38.825Z,47.10
2022-09-05T23:00:08.120Z,47.10
2022-09-05T23:02:35.168Z,47.00
2022-09-05T23:05:02.230Z,47.00
2022-09-05T23:07:29.583Z,47.10
2022-09-05T23:09:56.146Z,48.50
2022-09-05T23:12:22.715Z,44.80
2022-09-05T23:14:49.297Z,42.60
2022-09-05T23:17:15.886Z,42.40
2022-09-05T23:19:42.463Z,44.20
2022-09-05T23:22:09.014Z,46.90
2022-09-05T23:24:35.622Z,46.90
2022-09-05T23:27:02.232Z,46.80
2022-09-05T23:29:28.811Z,46.80
2022-09-05T23:31:56.279Z,46.80
2022-09-05T23:34:22.852Z,46.70
2022-09-05T23:36:49.429Z,48.60
2022-09-05T23:39:15.989Z,49.60
2022-09-05T23:41:42.556Z,50.10
2022-09-05T23:44:09.128Z,49.20
2022-09-05T23:46:37.322Z,50.60
2022-09-05T23:49:03.933Z,52.00
2022-09-05T23:51:30.516Z,52.00
2022-09-05T23:53:57.094Z,52.00
2022-09-05T23:56:23.703Z,52.50
2022-09-05T23:58:50.309Z,53.50
